createdAt,value
2023-01-22T00:01:24.792Z,16.10
2023-01-22T00:03:54.090Z,16.10
2023-01-22T00:06:23.797Z,16.10
2023-01-22T00:08:52.527Z,16.10
2023-01-22T00:11:21.419Z,16.10
2023-01-22T00:13:49.744Z,16.00
2023-01-22T00:16:19.330Z,16.10
2023-01-22T00:18:49.104Z,16.10
2023-01-22T00:21:18.111Z,16.00
2023-01-22T00:23:46.713Z,16.00
2023-01-22T00:26:16.973Z,16.00
2023-01-22T00:28:46.419Z,16.00
2023-01-22T00:31:16.752Z,16.00
2023-01-22T00:33:46.021Z,16.00
2023-01-22T00:36:17.768Z,16.00
2023-01-22T00:38:46.359Z,16.00
2023-01-22T00:41:15.873Z,16.00
2023-01-22T00:43:44.207Z,16.00
2023-01-22T00:46:14.927Z,16.00
2023-01-22T00:48:45.333Z,16.00
2023-01-22T00:51:15.711Z,16.00
2023-01-22T00:53:44.513Z,16.00
2023-01-22T00:56:14.214Z,16.00
2023-01-22T00:58:43.305Z,16.00
2023-01-22T01:01:13.606Z,16.00
2023-01-22T01:03:42.025Z,16.00
2023-01-22T01:06:16.812Z,16.00
2023-01-22T01:08:45.656Z,16.00
2023-01-22T01:11:15.594Z,16.00
2023-01-22T01:13:44.753Z,16.00
2023-01-22T01:16:15.812Z,15.90
2023-01-22T01:18:44.704Z,15.90
2023-01-22T01:21:13.209Z,15.90
2023-01-22T01:23:43.861Z,15.90
2023-01-22T01:26:14.663Z,15.90
2023-01-22T01:28:43.662Z,15.90
2023-01-22T01:31:14.568Z,15.90
2023-01-22T01:33:43.697Z,15.90
2023-01-22T01:36:13.736Z,15.90
2023-01-22T01:38:43.975Z,15.90
2023-01-22T01:41:15.083Z,15.90
2023-01-22T01:43:43.528Z,15.90
2023-01-22T01:46:20.202Z,15.90
2023-01-22T01:48:52.205Z,15.90
2023-01-22T01:51:26.606Z,15.90
2023-01-22T01:53:57.169Z,15.90
2023-01-22T01:56:28.872Z,15.90
2023-01-22T01:59:03.651Z,15.90
2023-01-22T02:01:32.950Z,15.90
2023-01-22T02:04:02.175Z,15.90
2023-01-22T02:06:31.554Z,15.90
2023-01-22T02:09:01.571Z,15.90
2023-01-22T02:11:31.764Z,15.90
2023-01-22T02:14:03.904Z,15.80
2023-01-22T02:16:32.680Z,15.80
2023-01-22T02:19:01.058Z,15.90
2023-01-22T02:21:33.760Z,15.80
2023-01-22T02:24:02.325Z,15.80
2023-01-22T02:26:30.823Z,15.80
2023-01-22T02:28:59.315Z,15.80
2023-01-22T02:31:27.732Z,15.80
2023-01-22T02:33:56.205Z,15.80
2023-01-22T02:36:24.581Z,15.80
2023-01-22T02:38:54.433Z,15.80
2023-01-22T02:41:23.063Z,15.80
2023-01-22T02:43:51.381Z,15.80
2023-01-22T02:46:20.153Z,15.80
2023-01-22T02:48:48.732Z,15.80
2023-01-22T02:51:17.156Z,15.80
2023-01-22T02:53:45.444Z,15.80
2023-01-22T02:56:15.433Z,15.80
2023-01-22T02:58:43.691Z,15.80
2023-01-22T03:01:21.006Z,15.80
2023-01-22T03:03:49.682Z,15.80
2023-01-22T03:06:21.487Z,15.80
2023-01-22T03:08:50.390Z,15.80
2023-01-22T03:11:20.290Z,15.80
2023-01-22T03:14:06.389Z,15.80
2023-01-22T03:16:52.721Z,15.80
2023-01-22T03:19:38.999Z,15.80
2023-01-22T03:22:07.546Z,15.80
2023-01-22T03:24:35.975Z,15.80
2023-01-22T03:27:06.183Z,15.80
2023-01-22T03:29:38.632Z,15.80
2023-01-22T03:32:07.644Z,15.80
2023-01-22T03:34:36.370Z,15.80
2023-01-22T03:37:04.991Z,15.80
2023-01-22T03:39:33.703Z,15.70
2023-01-22T03:42:02.192Z,15.80
2023-01-22T03:44:31.922Z,15.70
2023-01-22T03:47:00.336Z,15.70
2023-01-22T03:49:28.732Z,15.70
2023-01-22T03:51:57.709Z,15.70
2023-01-22T03:54:26.058Z,15.80
2023-01-22T03:56:54.356Z,15.80
2023-01-22T03:59:22.752Z,15.70
2023-01-22T04:01:53.699Z,15.70
2023-01-22T04:04:21.987Z,15.70
2023-01-22T04:06:50.279Z,15.70
2023-01-22T04:09:18.672Z,15.70
2023-01-22T04:11:46.974Z,15.70
2023-01-22T04:14:15.362Z,15.70
2023-01-22T04:16:43.740Z,15.70
2023-01-22T04:19:14.788Z,15.70
2023-01-22T04:21:43.155Z,15.70
2023-01-22T04:24:11.522Z,15.70
2023-01-22T04:26:39.897Z,15.70
2023-01-22T04:29:08.329Z,15.70
2023-01-22T04:31:36.835Z,15.70
2023-01-22T04:34:05.173Z,15.70
2023-01-22T04:36:34.973Z,15.70
2023-01-22T04:39:03.351Z,15.80
2023-01-22T04:41:31.579Z,15.80
2023-01-22T04:43:59.909Z,15.80
2023-01-22T04:46:28.178Z,15.80
2023-01-22T04:48:56.491Z,15.80
2023-01-22T04:51:24.841Z,15.80
2023-01-22T04:53:54.437Z,15.80
2023-01-22T04:56:22.656Z,15.80
2023-01-22T04:58:50.981Z,15.80
2023-01-22T05:01:19.192Z,15.90
2023-01-22T05:03:47.548Z,15.90
2023-01-22T05:06:15.851Z,15.90
2023-01-22T05:08:44.165Z,15.90
2023-01-22T05:11:13.786Z,15.90
2023-01-22T05:13:42.116Z,16.00
2023-01-22T05:16:10.616Z,16.00
2023-01-22T05:18:38.950Z,16.00
2023-01-22T05:21:07.537Z,16.00
2023-01-22T05:23:35.764Z,16.10
2023-01-22T05:26:04.007Z,16.10
2023-01-22T05:28:33.755Z,16.10
2023-01-22T05:31:02.271Z,16.10
2023-01-22T05:33:30.946Z,16.10
2023-01-22T05:35:59.570Z,16.10
2023-01-22T05:38:29.046Z,16.10
2023-01-22T05:40:57.664Z,16.10
2023-01-22T05:43:25.929Z,16.10
2023-01-22T05:45:55.599Z,16.20
2023-01-22T05:48:23.879Z,16.20
2023-01-22T05:50:52.035Z,16.20
2023-01-22T05:53:20.239Z,16.20
2023-01-22T05:55:48.576Z,16.20
2023-01-22T05:58:16.768Z,16.20
2023-01-22T06:00:45.021Z,16.20
2023-01-22T06:03:14.760Z,16.20
2023-01-22T06:05:43.093Z,16.20
2023-01-22T06:08:12.169Z,16.20
2023-01-22T06:10:40.399Z,16.20
2023-01-22T06:13:08.687Z,16.20
2023-01-22T06:15:36.918Z,16.20
2023-01-22T06:18:05.857Z,16.20
2023-01-22T06:20:36.700Z,16.20
2023-01-22T06:23:04.936Z,16.30
2023-01-22T06:25:33.384Z,16.20
2023-01-22T06:28:01.716Z,16.20
2023-01-22T06:30:29.967Z,16.30
2023-01-22T06:32:58.344Z,16.20
2023-01-22T06:35:26.538Z,16.20
2023-01-22T06:37:56.163Z,16.20
2023-01-22T06:40:24.375Z,16.20
2023-01-22T06:42:52.643Z,16.20
2023-01-22T06:45:21.204Z,16.20
2023-01-22T06:47:49.479Z,16.20
2023-01-22T06:50:18.460Z,16.20
2023-01-22T06:52:47.029Z,16.20
2023-01-22T06:55:16.823Z,16.20
2023-01-22T06:57:45.057Z,16.20
2023-01-22T07:00:14.095Z,16.20
2023-01-22T07:02:42.337Z,16.20
2023-01-22T07:05:11.045Z,16.20
2023-01-22T07:07:39.251Z,16.20
2023-01-22T07:10:08.111Z,16.20
2023-01-22T07:12:38.109Z,16.20
2023-01-22T07:15:07.991Z,16.30
2023-01-22T07:17:37.583Z,16.30
2023-01-22T07:20:06.623Z,16.30
2023-01-22T07:22:34.943Z,16.30
2023-01-22T07:25:03.329Z,16.30
2023-01-22T07:27:32.712Z,16.30
2023-01-22T07:30:02.558Z,16.30
2023-01-22T07:32:31.075Z,16.30
2023-01-22T07:34:59.361Z,16.30
2023-01-22T07:37:27.571Z,16.30
2023-01-22T07:39:55.941Z,16.30
2023-01-22T07:42:24.480Z,16.30
2023-01-22T07:44:52.704Z,16.30
2023-01-22T07:47:22.469Z,16.30
2023-01-22T07:49:50.833Z,16.30
2023-01-22T07:52:19.131Z,16.30
2023-01-22T07:54:47.627Z,16.30
2023-01-22T07:57:16.851Z,16.20
2023-01-22T07:59:45.373Z,16.30
2023-01-22T08:02:14.394Z,16.30
2023-01-22T08:04:44.191Z,16.30
2023-01-22T08:07:17.674Z,16.20
2023-01-22T08:09:46.175Z,16.20
2023-01-22T08:12:14.605Z,16.30
2023-01-22T08:14:42.735Z,16.30
2023-01-22T08:17:11.034Z,16.30
2023-01-22T08:19:39.274Z,16.20
2023-01-22T08:22:09.166Z,16.20
2023-01-22T08:24:37.499Z,16.20
2023-01-22T08:27:05.814Z,16.20
2023-01-22T08:29:34.002Z,16.20
2023-01-22T08:32:02.387Z,16.20
2023-01-22T08:34:30.717Z,16.20
2023-01-22T08:36:59.072Z,16.20
2023-01-22T08:39:29.815Z,16.20
2023-01-22T08:41:58.893Z,16.30
2023-01-22T08:44:27.655Z,16.20
2023-01-22T08:46:55.998Z,16.20
2023-01-22T08:49:24.288Z,16.30
2023-01-22T08:51:52.556Z,16.30
2023-01-22T08:54:20.843Z,16.30
2023-01-22T08:56:50.775Z,16.30
2023-01-22T08:59:19.115Z,16.30
2023-01-22T09:01:47.400Z,16.30
2023-01-22T09:04:15.736Z,16.30
2023-01-22T09:06:44.047Z,16.30
2023-01-22T09:09:13.209Z,16.30
2023-01-22T09:11:41.738Z,16.30
2023-01-22T09:14:11.532Z,16.30
2023-01-22T09:16:39.839Z,16.30
2023-01-22T09:19:08.492Z,16.30
2023-01-22T09:21:37.590Z,16.30
2023-01-22T09:24:06.526Z,16.30
2023-01-22T09:26:34.808Z,16.40
2023-01-22T09:29:05.721Z,16.30
2023-01-22T09:31:36.111Z,16.30
2023-01-22T09:34:04.685Z,16.30
2023-01-22T09:36:33.102Z,16.40
2023-01-22T09:39:01.294Z,16.40
2023-01-22T09:41:34.156Z,16.30
2023-01-22T09:44:06.526Z,16.40
2023-01-22T09:46:42.471Z,16.40
2023-01-22T09:49:15.954Z,16.40
2023-01-22T09:51:46.469Z,16.40
2023-01-22T09:54:17.422Z,16.40
2023-01-22T09:56:48.130Z,16.30
2023-01-22T09:59:19.787Z,16.40
2023-01-22T10:01:54.531Z,16.30
2023-01-22T10:04:35.956Z,16.40
2023-01-22T10:07:08.103Z,16.40
2023-01-22T10:09:40.063Z,16.40
2023-01-22T10:12:14.567Z,16.40
2023-01-22T10:14:44.563Z,16.40
2023-01-22T10:17:21.108Z,16.40
2023-01-22T10:19:53.401Z,16.40
2023-01-22T10:22:23.900Z,16.40
2023-01-22T10:24:53.083Z,16.40
2023-01-22T10:27:24.742Z,16.40
2023-01-22T10:30:02.460Z,16.40
2023-01-22T10:32:33.502Z,16.40
2023-01-22T10:35:05.145Z,16.40
2023-01-22T10:37:45.213Z,16.40
2023-01-22T10:40:24.003Z,16.50
2023-01-22T10:43:07.157Z,16.50
2023-01-22T10:45:35.463Z,16.50
2023-01-22T10:48:17.299Z,16.50
2023-01-22T10:50:46.720Z,16.50
2023-01-22T10:53:26.347Z,16.50
2023-01-22T11:07:32.946Z,16.60
2023-01-22T11:10:11.340Z,16.70
2023-01-22T11:12:45.506Z,16.80
2023-01-22T11:15:21.082Z,16.80
2023-01-22T11:17:52.722Z,16.80
2023-01-22T11:20:27.078Z,16.80
2023-01-22T11:23:15.728Z,16.80
2023-01-22T11:25:50.675Z,16.80
2023-01-22T11:28:29.910Z,16.80
2023-01-22T11:31:22.134Z,16.80
2023-01-22T11:34:22.585Z,16.80
2023-01-22T11:37:28.727Z,16.70
2023-01-22T11:40:14.623Z,16.70
2023-01-22T11:42:56.202Z,16.70
2023-01-22T11:45:38.903Z,16.70
2023-01-22T11:48:21.281Z,16.60
2023-01-22T11:50:54.533Z,16.60
2023-01-22T11:53:40.658Z,16.60
2023-01-22T11:56:26.218Z,16.60
2023-01-22T11:59:01.142Z,16.60
2023-01-22T12:01:42.568Z,16.60
2023-01-22T12:04:27.196Z,16.50
2023-01-22T12:07:20.860Z,16.50
2023-01-22T12:09:59.529Z,16.50
2023-01-22T12:12:41.597Z,16.50
2023-01-22T12:15:30.990Z,16.50
2023-01-22T12:18:20.027Z,16.50
2023-01-22T12:21:09.793Z,16.50
2023-01-22T12:23:41.765Z,16.50
2023-01-22T12:26:14.797Z,16.50
2023-01-22T12:28:49.704Z,16.40
2023-01-22T12:31:22.186Z,16.40
2023-01-22T12:33:50.561Z,16.40
2023-01-22T12:36:22.538Z,16.40
2023-01-22T12:38:55.649Z,16.40
2023-01-22T12:41:35.024Z,16.40
2023-01-22T12:44:14.773Z,16.40
2023-01-22T12:46:54.988Z,16.40
2023-01-22T12:49:23.285Z,16.40
2023-01-22T12:51:53.292Z,16.40
2023-01-22T12:54:23.904Z,16.30
2023-01-22T12:56:56.636Z,16.40
2023-01-22T12:59:42.987Z,16.30
2023-01-22T13:02:37.959Z,16.30
2023-01-22T13:05:21.215Z,16.30
2023-01-22T13:07:52.251Z,16.30
2023-01-22T13:10:29.331Z,16.30
2023-01-22T13:12:59.894Z,16.30
2023-01-22T13:15:32.191Z,16.30
2023-01-22T13:18:07.885Z,16.30
2023-01-22T13:20:39.419Z,16.20
2023-01-22T13:23:08.183Z,16.20
2023-01-22T13:25:36.780Z,16.30
2023-01-22T13:28:06.168Z,16.30
2023-01-22T13:30:35.959Z,16.20
2023-01-22T13:33:06.565Z,16.20
2023-01-22T13:35:37.920Z,16.20
2023-01-22T13:38:06.446Z,16.20
2023-01-22T13:40:46.446Z,16.20
2023-01-22T13:43:21.280Z,16.20
2023-01-22T13:45:52.081Z,16.20
2023-01-22T13:48:23.372Z,16.20
2023-01-22T13:50:56.725Z,16.20
2023-01-22T13:53:31.997Z,16.20
2023-01-22T13:56:01.313Z,16.20
2023-01-22T13:58:49.432Z,16.20
2023-01-22T14:01:30.455Z,16.20
2023-01-22T14:04:04.201Z,16.10
2023-01-22T14:06:43.757Z,16.10
2023-01-22T14:09:12.101Z,16.10
2023-01-22T14:11:41.375Z,16.10
2023-01-22T14:14:20.488Z,16.10
2023-01-22T14:16:50.160Z,16.10
2023-01-22T14:19:18.582Z,16.10
2023-01-22T14:21:47.019Z,16.10
2023-01-22T14:24:15.284Z,16.10
2023-01-22T14:26:43.568Z,16.10
2023-01-22T14:29:11.921Z,16.10
2023-01-22T14:31:40.457Z,16.10
2023-01-22T14:34:12.575Z,16.10
2023-01-22T14:36:40.890Z,16.00
2023-01-22T14:39:09.258Z,16.10
2023-01-22T14:41:37.674Z,16.00
2023-01-22T14:44:06.308Z,16.10
2023-01-22T14:46:36.720Z,16.00
2023-01-22T14:49:06.022Z,16.00
2023-01-22T14:51:35.885Z,16.00
2023-01-22T14:54:04.268Z,16.00
2023-01-22T14:56:32.722Z,16.00
2023-01-22T14:59:01.212Z,16.00
2023-01-22T15:01:29.802Z,16.00
2023-01-22T15:03:58.209Z,16.00
2023-01-22T15:06:27.020Z,16.00
2023-01-22T15:08:56.804Z,16.00
2023-01-22T15:11:25.046Z,16.00
2023-01-22T15:13:55.730Z,16.00
2023-01-22T15:16:24.121Z,16.00
2023-01-22T15:18:55.895Z,16.00
2023-01-22T15:21:24.364Z,16.00
2023-01-22T15:23:52.702Z,16.00
2023-01-22T15:26:27.797Z,16.00
2023-01-22T15:28:56.590Z,16.00
2023-01-22T15:31:25.125Z,16.00
2023-01-22T15:33:53.475Z,16.00
2023-01-22T15:36:21.722Z,16.00
2023-01-22T15:38:49.902Z,16.00
2023-01-22T15:41:23.048Z,16.00
2023-01-22T15:43:54.428Z,16.00
2023-01-22T15:46:24.469Z,16.00
2023-01-22T15:48:53.993Z,16.00
2023-01-22T15:51:22.803Z,16.00
2023-01-22T15:53:51.869Z,16.10
2023-01-22T15:56:20.724Z,16.00
2023-01-22T15:58:51.026Z,16.00
2023-01-22T16:01:21.707Z,16.10
2023-01-22T16:03:50.543Z,16.10
2023-01-22T16:06:22.502Z,16.10
2023-01-22T16:08:51.932Z,16.10
2023-01-22T16:11:20.953Z,16.10
2023-01-22T16:13:49.705Z,16.10
2023-01-22T16:16:21.881Z,16.10
2023-01-22T16:18:51.345Z,16.20
2023-01-22T16:21:21.658Z,16.20
2023-01-22T16:23:53.471Z,16.20
2023-01-22T16:26:23.999Z,16.20
2023-01-22T16:28:54.518Z,16.20
2023-01-22T16:31:26.656Z,16.20
2023-01-22T16:33:56.902Z,16.20
2023-01-22T16:36:27.507Z,16.20
2023-01-22T16:38:55.759Z,16.20
2023-01-22T16:41:27.906Z,16.30
2023-01-22T16:43:58.694Z,16.30
2023-01-22T16:46:31.115Z,16.30
2023-01-22T16:49:01.846Z,16.30
2023-01-22T16:51:35.483Z,16.30
2023-01-22T16:54:03.879Z,16.30
2023-01-22T16:56:32.952Z,16.30
2023-01-22T16:59:01.979Z,16.30
2023-01-22T17:01:32.645Z,16.30
2023-01-22T17:04:00.929Z,16.30
2023-01-22T17:06:32.616Z,16.30
2023-01-22T17:09:01.273Z,16.30
2023-01-22T17:11:29.598Z,16.30
2023-01-22T17:13:57.965Z,16.30
2023-01-22T17:16:26.320Z,16.30
2023-01-22T17:18:59.014Z,16.30
2023-01-22T17:21:28.615Z,16.30
2023-01-22T17:23:57.072Z,16.30
2023-01-22T17:26:25.267Z,16.30
2023-01-22T17:28:53.665Z,16.30
2023-01-22T17:31:24.114Z,16.30
2023-01-22T17:33:55.604Z,16.30
2023-01-22T17:36:25.757Z,16.30
2023-01-22T17:38:56.582Z,16.30
2023-01-22T17:41:27.094Z,16.30
2023-01-22T17:43:57.754Z,16.30
2023-01-22T17:46:28.965Z,16.30
2023-01-22T17:48:57.592Z,16.30
2023-01-22T17:51:29.315Z,16.30
2023-01-22T17:53:59.269Z,16.30
2023-01-22T17:56:31.250Z,16.30
2023-01-22T17:59:01.141Z,16.30
2023-01-22T18:01:31.108Z,16.30
2023-01-22T18:04:01.656Z,16.30
2023-01-22T18:06:31.531Z,16.30
2023-01-22T18:09:00.704Z,16.30
2023-01-22T18:11:33.044Z,16.30
2023-01-22T18:14:03.058Z,16.30
2023-01-22T18:16:33.381Z,16.30
2023-01-22T18:19:05.358Z,16.30
2023-01-22T18:21:35.906Z,16.30
2023-01-22T18:24:05.897Z,16.30
2023-01-22T18:26:34.370Z,16.30
2023-01-22T18:29:03.342Z,16.30
2023-01-22T18:31:31.859Z,16.30
2023-01-22T18:34:02.342Z,16.30
2023-01-22T18:36:33.750Z,16.30
2023-01-22T18:39:05.768Z,16.30
2023-01-22T18:41:34.423Z,16.30
2023-01-22T18:44:03.327Z,16.30
2023-01-22T18:46:34.224Z,16.30
2023-01-22T18:49:04.917Z,16.30
2023-01-22T18:51:34.203Z,16.30
2023-01-22T18:54:05.985Z,16.30
2023-01-22T18:56:34.948Z,16.30
2023-01-22T18:59:03.263Z,16.30
2023-01-22T19:01:33.503Z,16.30
2023-01-22T19:04:04.851Z,16.30
2023-01-22T19:06:36.620Z,16.30
2023-01-22T19:09:08.691Z,16.30
2023-01-22T19:11:39.127Z,16.30
2023-01-22T19:14:09.232Z,16.30
2023-01-22T19:16:38.682Z,16.30
2023-01-22T19:19:11.320Z,16.30
2023-01-22T19:21:41.380Z,16.30
2023-01-22T19:24:11.601Z,16.30
2023-01-22T19:26:40.128Z,16.30
2023-01-22T19:29:10.016Z,16.30
2023-01-22T19:31:40.303Z,16.30
2023-01-22T19:34:09.980Z,16.30
2023-01-22T19:36:39.113Z,16.30
2023-01-22T19:39:09.513Z,16.30
2023-01-22T19:41:39.691Z,16.30
2023-01-22T19:44:09.177Z,16.30
2023-01-22T19:46:38.173Z,16.30
2023-01-22T19:49:06.893Z,16.30
2023-01-22T19:51:35.911Z,16.30
2023-01-22T19:54:05.530Z,16.30
2023-01-22T19:56:35.822Z,16.30
2023-01-22T19:59:07.806Z,16.30
2023-01-22T20:01:36.861Z,16.30
2023-01-22T20:04:08.970Z,16.30
2023-01-22T20:06:37.552Z,16.30
2023-01-22T20:09:06.545Z,16.30
2023-01-22T20:11:34.983Z,16.30
2023-01-22T20:14:04.578Z,16.30
2023-01-22T20:16:32.918Z,16.30
2023-01-22T20:19:01.236Z,16.30
2023-01-22T20:21:30.075Z,16.30
2023-01-22T20:23:58.335Z,16.30
2023-01-22T20:26:26.602Z,16.30
2023-01-22T20:28:54.802Z,16.30
2023-01-22T20:31:25.320Z,16.30
2023-01-22T20:33:55.611Z,16.30
2023-01-22T20:36:25.137Z,16.20
2023-01-22T20:38:54.980Z,16.20
2023-01-22T20:41:26.395Z,16.20
2023-01-22T20:43:55.710Z,16.30
2023-01-22T20:46:27.529Z,16.20
2023-01-22T20:48:58.258Z,16.20
2023-01-22T20:51:28.445Z,16.20
2023-01-22T20:53:58.175Z,16.30
2023-01-22T20:56:30.323Z,16.20
2023-01-22T20:58:59.685Z,16.20
2023-01-22T21:01:30.426Z,16.20
2023-01-22T21:04:00.092Z,16.20
2023-01-22T21:06:30.855Z,16.20
2023-01-22T21:09:01.050Z,16.20
2023-01-22T21:11:31.078Z,16.20
2023-01-22T21:14:00.612Z,16.20
2023-01-22T21:16:32.511Z,16.20
2023-01-22T21:19:02.341Z,16.20
2023-01-22T21:21:31.932Z,16.20
2023-01-22T21:24:00.944Z,16.20
2023-01-22T21:26:31.196Z,16.20
2023-01-22T21:29:01.453Z,16.20
2023-01-22T21:31:32.095Z,16.10
2023-01-22T21:34:03.520Z,16.10
2023-01-22T21:36:32.666Z,16.20
2023-01-22T21:39:01.191Z,16.10
2023-01-22T21:41:29.411Z,16.10
2023-01-22T21:44:15.589Z,16.10
2023-01-22T21:46:47.202Z,16.10
2023-01-22T21:49:17.721Z,16.10
2023-01-22T21:51:48.054Z,16.10
2023-01-22T21:54:18.299Z,16.10
2023-01-22T21:56:46.781Z,16.10
2023-01-22T21:59:15.190Z,16.10
2023-01-22T22:01:45.051Z,16.10
2023-01-22T22:04:15.056Z,16.10
2023-01-22T22:06:43.585Z,16.10
2023-01-22T22:09:14.677Z,16.00
2023-01-22T22:11:42.958Z,16.10
2023-01-22T22:14:12.400Z,16.00
2023-01-22T22:16:40.812Z,16.00
2023-01-22T22:19:10.479Z,16.00
2023-01-22T22:21:39.005Z,16.00
2023-01-22T22:24:08.260Z,16.00
2023-01-22T22:26:36.927Z,16.10
2023-01-22T22:29:05.804Z,16.00
2023-01-22T22:31:34.365Z,16.00
2023-01-22T22:34:02.682Z,16.00
2023-01-22T22:36:33.616Z,16.00
2023-01-22T22:39:02.318Z,16.00
2023-01-22T22:41:33.416Z,16.00
2023-01-22T22:44:01.707Z,16.00
2023-01-22T22:46:33.338Z,16.00
2023-01-22T22:49:02.861Z,16.00
2023-01-22T22:51:35.088Z,16.00
2023-01-22T22:54:07.821Z,16.00
2023-01-22T22:56:36.146Z,16.00
2023-01-22T22:59:05.237Z,15.90
2023-01-22T23:01:35.667Z,16.00
2023-01-22T23:04:04.135Z,16.00
2023-01-22T23:06:35.683Z,15.90
2023-01-22T23:09:06.545Z,15.90
2023-01-22T23:11:36.293Z,15.90
2023-01-22T23:14:05.226Z,15.90
2023-01-22T23:16:36.594Z,15.90
2023-01-22T23:19:07.496Z,15.90
2023-01-22T23:21:41.315Z,15.90
2023-01-22T23:24:10.868Z,15.90
2023-01-22T23:26:40.165Z,15.90
2023-01-22T23:29:10.211Z,15.90
2023-01-22T23:31:39.898Z,15.90
2023-01-22T23:34:11.103Z,15.90
2023-01-22T23:36:43.368Z,15.90
2023-01-22T23:39:12.437Z,15.90
2023-01-22T23:41:40.743Z,15.90
2023-01-22T23:44:09.783Z,15.80
2023-01-22T23:46:38.811Z,15.80
2023-01-22T23:49:07.209Z,15.80
2023-01-22T23:51:36.736Z,15.80
2023-01-22T23:54:06.625Z,15.80
2023-01-22T23:56:35.481Z,15.80
2023-01-22T23:59:03.752Z,15.80
